Time;durP1;ratioP1;P1;durP2;ratioP2;P2;SDS_P1;SDS_P2;PMS_P1;PMS_P2;Temp;Humidity;BMP_temperature;BMP_pressure;BME280_temperature;BME280_humidity;BME280_pressure;Samples;Min_cycle;Max_cycle;Signal;HPM_P1;HPM_P2
2022/01/10 00:01:08;;;;;;;21.92;20.52;;;8.40;99.90;;;;;;5045384;28;20111;-79
2022/01/10 00:03:34;;;;;;;22.60;21.02;;;8.40;99.90;;;;;;5047438;28;20112;-81
2022/01/10 00:06:00;;;;;;;21.98;20.48;;;8.40;99.90;;;;;;5029517;28;20511;-78
2022/01/10 00:08:26;;;;;;;21.63;19.80;;;8.40;99.90;;;;;;5029528;28;20622;-83
2022/01/10 00:10:52;;;;;;;22.30;20.60;;;8.40;99.90;;;;;;5045862;28;20075;-80
2022/01/10 00:13:19;;;;;;;21.17;19.98;;;8.40;99.90;;;;;;5012950;28;20036;-82
2022/01/10 00:15:46;;;;;;;21.42;19.73;;;8.40;99.90;;;;;;5047070;28;20040;-79
2022/01/10 00:18:12;;;;;;;21.42;19.95;;;8.40;99.90;;;;;;5045963;28;20025;-79
2022/01/10 00:20:37;;;;;;;21.25;19.67;;;8.40;99.90;;;;;;5047231;28;20021;-82
2022/01/10 00:23:04;;;;;;;21.35;19.85;;;8.50;99.90;;;;;;5047167;28;20387;-79
2022/01/10 00:25:29;;;;;;;;;;;8.40;99.90;;;;;;5046395;28;20083;-81
2022/01/10 00:27:56;;;;;;;20.95;19.65;;;8.50;99.90;;;;;;5047190;28;19909;-81
2022/01/10 00:30:23;;;;;;;22.05;20.17;;;8.50;99.90;;;;;;5045685;28;20561;-79
2022/01/10 00:32:50;;;;;;;20.60;19.27;;;8.50;99.90;;;;;;5045459;28;20053;-79
2022/01/10 00:35:16;;;;;;;20.35;19.15;;;8.50;99.90;;;;;;5045767;28;20037;-79
2022/01/10 00:37:43;;;;;;;20.55;18.75;;;8.50;99.90;;;;;;5047026;28;20025;-80
2022/01/10 00:40:13;;;;;;;21.40;19.98;;;8.60;99.90;;;;;;5048409;28;20106;-79
2022/01/10 00:42:39;;;;;;;20.35;19.00;;;8.60;99.90;;;;;;5049448;28;20064;-80
2022/01/10 00:45:17;;;;;;;20.98;19.58;;;8.60;99.90;;;;;;5049290;28;20502;-79
2022/01/10 00:47:45;;;;;;;20.23;18.92;;;8.70;99.90;;;;;;5049262;28;20029;-79
2022/01/10 00:50:12;;;;;;;19.55;18.50;;;8.70;99.90;;;;;;5032826;28;20029;-79
2022/01/10 00:52:38;;;;;;;19.67;18.10;;;8.70;99.90;;;;;;5050427;28;20490;-81
2022/01/10 00:55:04;;;;;;;21.42;19.70;;;8.80;99.90;;;;;;5049386;28;20029;-79
2022/01/10 00:57:29;;;;;;;20.95;19.58;;;8.80;99.90;;;;;;5050345;28;20053;-80
2022/01/10 00:59:55;;;;;;;19.85;18.42;;;8.80;99.90;;;;;;5032257;28;20452;-81
2022/01/10 01:02:22;;;;;;;18.60;17.70;;;8.80;99.90;;;;;;5049183;28;20036;-79
2022/01/10 01:04:51;;;;;;;18.90;17.75;;;8.80;99.90;;;;;;5032589;28;20551;-79
2022/01/10 01:07:17;;;;;;;19.42;18.05;;;8.90;99.90;;;;;;5032696;28;20033;-81
2022/01/10 01:09:48;;;;;;;18.38;17.42;;;8.90;99.90;;;;;;5050191;28;20036;-80
2022/01/10 01:12:37;;;;;;;18.92;17.75;;;8.90;99.90;;;;;;5032971;28;20041;-78
2022/01/10 01:15:17;;;;;;;18.35;17.45;;;8.80;99.90;;;;;;5048666;28;20395;-82
2022/01/10 01:17:58;;;;;;;17.98;17.10;;;8.90;99.90;;;;;;5048923;28;20041;-79
2022/01/10 01:20:42;;;;;;;18.65;17.75;;;8.90;99.90;;;;;;5048733;28;20075;-83
2022/01/10 01:25:59;;;;;;;18.58;17.70;;;9.00;99.90;;;;;;5050026;28;20406;-80
2022/01/10 01:28:25;;;;;;;;;;;9.00;99.90;;;;;;5048874;28;20087;-79
2022/01/10 01:30:51;;;;;;;19.40;18.50;;;9.00;99.90;;;;;;5048155;28;20270;-82
2022/01/10 01:33:18;;;;;;;19.88;18.98;;;9.00;99.90;;;;;;5048424;28;20528;-77
2022/01/10 01:35:44;;;;;;;22.20;21.20;;;9.00;99.90;;;;;;5031919;28;20029;-80
2022/01/10 01:38:09;;;;;;;23.77;22.67;;;9.00;99.90;;;;;;5049593;28;20053;-80
2022/01/10 01:40:41;;;;;;;23.40;22.30;;;9.00;99.90;;;;;;5048129;28;20053;-80
2022/01/10 01:43:07;;;;;;;23.45;22.35;;;9.00;99.90;;;;;;5048113;28;20025;-80
2022/01/10 01:45:39;;;;;;;24.45;23.33;;;9.10;99.90;;;;;;5031834;28;20029;-80
2022/01/10 01:48:05;;;;;;;24.27;23.17;;;9.10;99.90;;;;;;5049357;28;20028;-80
2022/01/10 01:50:32;;;;;;;23.33;22.33;;;9.10;99.90;;;;;;5049344;28;20154;-81
2022/01/10 01:52:57;;;;;;;23.35;22.25;;;9.10;99.90;;;;;;5047985;28;20086;-81
2022/01/10 01:55:23;;;;;;;24.15;23.05;;;9.20;99.90;;;;;;5047954;28;20124;-78
2022/01/10 01:57:49;;;;;;;23.20;22.00;;;9.20;99.90;;;;;;5048270;28;20530;-79
2022/01/10 02:00:19;;;;;;;22.88;21.85;;;9.20;99.90;;;;;;5047667;28;20029;-81
2022/01/10 02:02:46;;;;;;;22.60;21.63;;;9.20;99.90;;;;;;5048153;28;20033;-79
2022/01/10 02:05:12;;;;;;;23.67;22.67;;;9.30;99.90;;;;;;5049120;28;20025;-80
2022/01/10 02:07:38;;;;;;;24.25;23.20;;;9.30;99.90;;;;;;5049072;28;20104;-82
2022/01/10 02:10:05;;;;;;;23.27;22.27;;;9.30;99.90;;;;;;5048831;28;20029;-80
2022/01/10 02:12:30;;;;;;;23.63;22.63;;;9.30;99.90;;;;;;5014648;28;20040;-81
2022/01/10 02:14:57;;;;;;;23.73;22.73;;;9.30;99.90;;;;;;5047696;28;20463;-78
2022/01/10 02:17:33;;;;;;;23.17;22.17;;;9.30;99.90;;;;;;5047560;28;20033;-80
2022/01/10 02:19:59;;;;;;;22.85;21.85;;;9.30;99.90;;;;;;5017228;28;20026;-80
2022/01/10 02:22:25;;;;;;;21.02;20.13;;;9.30;99.90;;;;;;5047517;28;20033;-79
2022/01/10 02:24:51;;;;;;;21.42;20.48;;;9.30;99.90;;;;;;5030784;28;20387;-81
2022/01/10 02:27:17;;;;;;;22.23;21.23;;;9.30;99.90;;;;;;5048786;28;20033;-81
2022/01/10 02:29:43;;;;;;;21.27;20.30;;;9.30;99.90;;;;;;5048556;28;20056;-80
2022/01/10 02:32:08;;;;;;;20.65;19.75;;;9.40;99.90;;;;;;5047334;28;20053;-79
2022/01/10 02:34:34;;;;;;;18.90;18.08;;;9.40;99.90;;;;;;5047669;28;20044;-80
2022/01/10 02:37:00;;;;;;;19.55;18.75;;;9.40;99.90;;;;;;5047619;28;20032;-81
2022/01/10 02:39:26;;;;;;;20.05;19.15;;;9.40;99.90;;;;;;5048492;28;20116;-79
2022/01/10 02:41:52;;;;;;;19.75;18.85;;;9.40;99.90;;;;;;5048671;28;20032;-79
2022/01/10 02:44:18;;;;;;;19.70;18.80;;;9.40;99.90;;;;;;5047272;28;20090;-80
2022/01/10 02:46:46;;;;;;;18.90;18.10;;;9.40;99.90;;;;;;5030704;28;20086;-80
2022/01/10 02:49:14;;;;;;;20.35;19.48;;;9.50;99.90;;;;;;5048422;28;20098;-78
2022/01/10 02:51:40;;;;;;;20.48;19.60;;;9.50;99.90;;;;;;5030737;28;20136;-79
2022/01/10 02:54:09;;;;;;;22.75;21.85;;;9.50;99.90;;;;;;5047060;28;20609;-80
2022/01/10 02:56:47;;;;;;;23.55;22.55;;;9.50;99.90;;;;;;5047242;28;20216;-80
2022/01/10 02:59:13;;;;;;;22.23;21.23;;;9.50;99.90;;;;;;5046864;28;20184;-82
2022/01/10 03:01:39;;;;;;;22.08;21.17;;;9.50;99.90;;;;;;5046484;28;20039;-80
2022/01/10 03:04:04;;;;;;;22.17;21.27;;;9.50;99.90;;;;;;5048184;28;20110;-79
2022/01/10 03:06:32;;;;;;;22.77;21.77;;;9.50;99.90;;;;;;5046895;28;20056;-82
2022/01/10 03:09:04;;;;;;;22.52;21.55;;;9.60;99.90;;;;;;5048025;28;20029;-82
2022/01/10 03:11:30;;;;;;;23.85;22.85;;;9.60;99.90;;;;;;5031133;28;20036;-82
2022/01/10 03:13:55;;;;;;;24.10;23.05;;;9.60;99.90;;;;;;5046916;28;20037;-80
2022/01/10 03:16:21;;;;;;;25.83;24.63;;;9.60;99.90;;;;;;5048394;28;20509;-79
2022/01/10 03:18:47;;;;;;;24.45;23.45;;;9.60;99.90;;;;;;5030180;28;20021;-81
2022/01/10 03:21:12;;;;;;;25.35;24.30;;;9.60;99.90;;;;;;5046717;28;20125;-79
2022/01/10 03:23:38;;;;;;;24.95;23.75;;;9.60;99.90;;;;;;5048084;28;20139;-81
2022/01/10 03:26:04;;;;;;;24.65;23.55;;;9.60;99.90;;;;;;5047845;28;20534;-81
2022/01/10 03:28:30;;;;;;;24.73;23.73;;;9.60;99.90;;;;;;5046532;28;20029;-80
2022/01/10 03:30:55;;;;;;;25.95;24.85;;;9.60;99.90;;;;;;5046291;28;20112;-81
2022/01/10 03:33:21;;;;;;;24.33;23.02;;;9.60;99.90;;;;;;5046700;28;20403;-77
2022/01/10 03:35:47;;;;;;;25.33;24.23;;;9.60;99.90;;;;;;5046632;28;20066;-80
2022/01/10 03:38:12;;;;;;;24.80;23.80;;;9.60;99.90;;;;;;5047828;28;20475;-81
2022/01/10 03:40:38;;;;;;;27.42;25.95;;;9.60;99.90;;;;;;5029775;28;20025;-82
2022/01/10 03:43:04;;;;;;;27.45;26.20;;;9.60;99.90;;;;;;5046449;28;20090;-80
2022/01/10 03:45:30;;;;;;;;;;;9.70;99.90;;;;;;5047956;28;20382;-80
2022/01/10 03:47:56;;;;;;;26.08;24.88;;;9.70;99.90;;;;;;5046376;28;20015;-78
2022/01/10 03:50:21;;;;;;;27.17;26.00;;;9.70;99.90;;;;;;5047584;28;20163;-79
2022/01/10 03:52:47;;;;;;;26.55;25.45;;;9.70;99.90;;;;;;5047516;28;20074;-78
2022/01/10 03:55:13;;;;;;;27.38;26.08;;;9.80;99.90;;;;;;5029683;28;20033;-82
2022/01/10 03:57:39;;;;;;;28.00;26.80;;;9.70;99.90;;;;;;5046797;28;20418;-80
2022/01/10 04:00:06;;;;;;;27.77;26.45;;;9.80;99.90;;;;;;5046573;28;20025;-80
2022/01/10 04:02:33;;;;;;;25.77;24.63;;;9.80;99.90;;;;;;5047588;28;20041;-77
2022/01/10 04:04:59;;;;;;;27.17;25.88;;;9.80;99.90;;;;;;5047466;28;20028;-80
2022/01/10 04:07:25;;;;;;;25.65;24.45;;;9.80;99.90;;;;;;5046336;28;20483;-80
2022/01/10 04:09:50;;;;;;;26.60;25.13;;;9.90;99.90;;;;;;5046126;28;20531;-78
2022/01/10 04:12:16;;;;;;;26.85;25.45;;;9.90;99.90;;;;;;5047281;28;20059;-80
2022/01/10 04:14:42;;;;;;;27.55;25.10;;;9.90;99.90;;;;;;5049971;28;20048;-81
2022/01/10 04:17:07;;;;;;;27.75;25.85;;;9.90;99.90;;;;;;5049917;28;20025;-78
2022/01/10 04:19:33;;;;;;;26.73;24.83;;;9.90;99.90;;;;;;5050142;28;20038;-77
2022/01/10 04:21:59;;;;;;;27.88;25.65;;;9.90;99.90;;;;;;5049796;28;20116;-79
2022/01/10 04:24:25;;;;;;;27.52;25.45;;;9.90;99.90;;;;;;5033196;28;20090;-80
2022/01/10 04:26:50;;;;;;;28.73;26.85;;;10.00;99.90;;;;;;5033307;28;20025;-79
2022/01/10 04:29:16;;;;;;;28.00;25.90;;;9.90;99.90;;;;;;5032940;28;20550;-81
2022/01/10 04:31:42;;;;;;;26.30;24.60;;;10.00;99.90;;;;;;5049435;28;20041;-81
2022/01/10 04:34:07;;;;;;;27.67;25.90;;;10.00;99.90;;;;;;5049592;28;20398;-80
2022/01/10 04:36:33;;;;;;;28.20;26.02;;;10.00;99.90;;;;;;5049622;28;20067;-80
2022/01/10 04:38:59;;;;;;;27.65;25.60;;;10.00;99.90;;;;;;5049523;28;20048;-80
2022/01/10 04:41:24;;;;;;;28.13;25.90;;;10.00;99.90;;;;;;5049426;28;20033;-80
2022/01/10 04:43:50;;;;;;;28.00;25.48;;;10.00;99.90;;;;;;5032867;28;20033;-80
2022/01/10 04:46:16;;;;;;;28.08;26.13;;;10.10;99.90;;;;;;5049444;28;20040;-80
2022/01/10 04:48:41;;;;;;;27.77;25.13;;;10.10;99.90;;;;;;5050547;28;20451;-79
2022/01/10 04:51:27;;;;;;;28.90;26.40;;;10.10;99.90;;;;;;5049203;28;20029;-80
2022/01/10 04:53:53;;;;;;;28.33;25.92;;;10.20;99.90;;;;;;5050528;28;20083;-80
2022/01/10 04:56:20;;;;;;;27.30;25.42;;;10.20;99.90;;;;;;5032657;28;20021;-82
2022/01/10 04:58:47;;;;;;;28.20;25.85;;;10.30;99.90;;;;;;5050404;28;20131;-79
2022/01/10 05:01:14;;;;;;;29.70;26.13;;;10.30;99.90;;;;;;5050386;28;20025;-69
2022/01/10 05:03:40;;;;;;;28.58;25.70;;;10.30;99.90;;;;;;5050306;28;20025;-81
2022/01/10 05:06:06;;;;;;;30.60;28.08;;;10.40;99.90;;;;;;5049133;28;20372;-79
2022/01/10 05:08:32;;;;;;;31.38;27.65;;;10.40;99.90;;;;;;5032455;28;20128;-83
2022/01/10 05:10:58;;;;;;;33.42;30.02;;;10.40;99.90;;;;;;5048787;28;20028;-83
2022/01/10 05:13:24;;;;;;;32.58;29.35;;;10.40;99.90;;;;;;5048883;28;20032;-80
2022/01/10 05:15:51;;;;;;;31.52;28.92;;;10.50;99.90;;;;;;5050156;28;20091;-80
2022/01/10 05:18:18;;;;;;;34.50;31.08;;;10.50;99.90;;;;;;5050113;28;20467;-80
2022/01/10 05:20:45;;;;;;;35.25;32.05;;;10.50;99.90;;;;;;5049153;28;20108;-79
2022/01/10 05:23:11;;;;;;;33.33;29.73;;;10.50;99.90;;;;;;5048939;28;20108;-80
2022/01/10 05:25:40;;;;;;;32.33;29.52;;;10.60;99.90;;;;;;5049635;28;20087;-81
2022/01/10 05:28:07;;;;;;;34.08;30.85;;;10.60;99.90;;;;;;5050089;28;20536;-82
2022/01/10 05:30:33;;;;;;;34.63;31.67;;;10.60;99.90;;;;;;5032116;28;20048;-79
2022/01/10 05:32:59;;;;;;;34.20;31.33;;;10.60;99.90;;;;;;5049666;28;20052;-82
2022/01/10 05:35:25;;;;;;;35.97;32.88;;;10.70;99.90;;;;;;5048610;28;20404;-81
2022/01/10 05:37:51;;;;;;;;;;;10.70;99.90;;;;;;5050551;28;20156;-82
2022/01/10 05:40:19;;;;;;;35.47;32.17;;;10.70;99.90;;;;;;5048309;28;20385;-80
2022/01/10 05:42:45;;;;;;;36.83;33.70;;;10.70;99.90;;;;;;5049977;28;20163;-80
2022/01/10 05:45:11;;;;;;;36.35;33.65;;;10.80;99.90;;;;;;5048368;28;20462;-79
2022/01/10 05:47:42;;;;;;;37.28;34.00;;;10.80;99.90;;;;;;5048267;28;20039;-81
2022/01/10 05:50:10;;;;;;;38.30;34.67;;;10.80;99.90;;;;;;5049401;28;20029;-78
2022/01/10 05:52:36;;;;;;;37.70;34.47;;;10.80;99.90;;;;;;5047945;28;20041;-80
2022/01/10 05:55:02;;;;;;;35.47;32.83;;;10.80;99.90;;;;;;5049391;28;20040;-79
2022/01/10 05:57:28;;;;;;;35.35;32.83;;;10.80;99.90;;;;;;5049214;28;20038;-80
2022/01/10 05:59:54;;;;;;;39.60;35.47;;;10.80;99.90;;;;;;5031350;28;20051;-81
2022/01/10 06:02:20;;;;;;;37.97;34.95;;;10.80;99.90;;;;;;5031681;28;20095;-80
2022/01/10 06:04:45;;;;;;;37.47;34.78;;;10.90;99.90;;;;;;5049326;28;20503;-81
2022/01/10 06:07:12;;;;;;;39.38;36.42;;;10.90;99.90;;;;;;5031392;28;20049;-79
2022/01/10 06:09:38;;;;;;;39.45;36.13;;;10.90;99.90;;;;;;5047724;28;20025;-80
2022/01/10 06:12:05;;;;;;;38.95;36.13;;;11.00;99.90;;;;;;5048892;28;20052;-81
2022/01/10 06:14:30;;;;;;;40.58;36.95;;;11.00;99.90;;;;;;5049213;28;20020;-80
2022/01/10 06:16:56;;;;;;;39.90;36.10;;;11.00;99.90;;;;;;5048972;28;20074;-80
2022/01/10 06:19:22;;;;;;;42.53;39.05;;;11.10;99.90;;;;;;5047592;28;20037;-81
2022/01/10 06:21:48;;;;;;;40.10;36.78;;;11.10;99.90;;;;;;5049703;28;20029;-78
2022/01/10 06:24:14;;;;;;;39.13;36.35;;;11.10;99.90;;;;;;5048984;28;20123;-79
2022/01/10 06:26:40;;;;;;;41.20;37.35;;;11.10;99.90;;;;;;5047513;28;20413;-79
2022/01/10 06:29:05;;;;;;;39.25;36.50;;;11.10;99.90;;;;;;5048619;28;20098;-77
2022/01/10 06:31:31;;;;;;;44.78;40.85;;;11.20;99.90;;;;;;5046985;28;20518;-80
2022/01/10 06:33:57;;;;;;;42.90;39.53;;;11.10;99.90;;;;;;5047230;28;20396;-79
2022/01/10 06:36:23;;;;;;;44.60;41.22;;;11.20;99.90;;;;;;5029921;28;20044;-79
2022/01/10 06:38:48;;;;;;;42.83;39.05;;;11.20;99.90;;;;;;5047238;28;20330;-80
2022/01/10 06:41:14;;;;;;;41.97;38.28;;;11.20;99.90;;;;;;5047653;28;20029;-78
2022/01/10 06:43:40;;;;;;;42.55;39.38;;;11.20;99.90;;;;;;5048383;28;20048;-80
2022/01/10 06:46:06;;;;;;;40.60;37.83;;;11.30;99.90;;;;;;5047168;28;20126;-81
2022/01/10 06:48:32;;;;;;;42.55;39.20;;;11.30;99.90;;;;;;5048311;28;20037;-80
2022/01/10 06:50:58;;;;;;;;;;;11.30;99.90;;;;;;5047496;28;20057;-81
2022/01/10 06:53:24;;;;;;;40.90;37.78;;;11.30;99.90;;;;;;5047636;28;20006;-79
2022/01/10 06:55:50;;;;;;;42.42;40.13;;;11.30;99.90;;;;;;5046973;28;20123;-81
2022/01/10 06:58:16;;;;;;;;;;;11.30;99.90;;;;;;5031170;28;20048;-78
2022/01/10 07:00:43;;;;;;;41.92;38.70;;;11.30;99.90;;;;;;5047911;28;19909;-81
2022/01/10 07:03:09;;;;;;;42.40;39.10;;;11.40;99.90;;;;;;5046802;28;20025;-81
2022/01/10 07:05:36;;;;;;;40.13;37.72;;;11.40;99.90;;;;;;5046720;28;20211;-79
2022/01/10 07:08:02;;;;;;;41.15;38.60;;;11.40;99.90;;;;;;5047797;28;20056;-81
2022/01/10 07:10:27;;;;;;;40.03;37.20;;;11.40;99.90;;;;;;5046345;28;20026;-80
2022/01/10 07:12:53;;;;;;;39.10;36.42;;;11.40;99.90;;;;;;5030072;28;20029;-81
2022/01/10 07:15:20;;;;;;;38.85;36.53;;;11.40;99.90;;;;;;5046915;28;20157;-79
2022/01/10 07:17:46;;;;;;;40.50;37.60;;;11.40;99.90;;;;;;5029442;28;20051;-80
2022/01/10 07:20:12;;;;;;;38.30;36.22;;;11.40;99.90;;;;;;5047627;28;20036;-79
2022/01/10 07:22:38;;;;;;;40.22;38.08;;;11.50;99.90;;;;;;5047342;28;20067;-79
2022/01/10 07:25:04;;;;;;;42.40;39.72;;;11.50;99.90;;;;;;5047098;28;20036;-80
2022/01/10 07:27:30;;;;;;;42.70;40.35;;;11.40;99.90;;;;;;5047498;28;20029;-80
2022/01/10 07:29:56;;;;;;;43.28;40.97;;;11.40;99.90;;;;;;5030313;28;20043;-80
2022/01/10 07:32:23;;;;;;;39.42;37.45;;;11.40;99.90;;;;;;5029332;28;20045;-79
2022/01/10 07:34:48;;;;;;;43.95;41.35;;;11.40;99.90;;;;;;5046513;28;20086;-80
2022/01/10 07:37:16;;;;;;;41.47;38.75;;;11.40;99.90;;;;;;5046428;28;20040;-78
2022/01/10 07:39:41;;;;;;;38.95;36.95;;;11.30;99.90;;;;;;5030206;28;20046;-81
2022/01/10 07:42:07;;;;;;;39.85;37.85;;;11.30;99.90;;;;;;5046453;28;20458;-79
2022/01/10 07:44:34;;;;;;;39.22;37.33;;;11.30;99.90;;;;;;5046019;28;20064;-79
2022/01/10 07:47:00;;;;;;;39.50;37.47;;;11.20;99.90;;;;;;5045799;28;20605;-81
2022/01/10 07:49:26;;;;;;;39.10;36.85;;;11.20;99.90;;;;;;5051316;28;20060;-81
2022/01/10 07:51:52;;;;;;;37.50;35.60;;;11.20;99.90;;;;;;5051340;28;20057;-80
2022/01/10 07:54:17;;;;;;;39.85;37.67;;;11.20;99.90;;;;;;5050385;28;20021;-80
2022/01/10 07:56:43;;;;;;;40.30;38.10;;;11.20;99.90;;;;;;5050397;28;20033;-80
2022/01/10 07:59:09;;;;;;;41.55;39.25;;;11.20;99.90;;;;;;5051395;28;20428;-80
2022/01/10 08:01:35;;;;;;;42.08;39.65;;;11.20;99.90;;;;;;5033445;28;20083;-80
2022/01/10 08:04:01;;;;;;;41.20;39.30;;;11.20;99.90;;;;;;5051952;28;20037;-78
2022/01/10 08:06:26;;;;;;;40.22;37.60;;;11.20;99.90;;;;;;5050137;28;20036;-78
2022/01/10 08:08:52;;;;;;;40.58;38.47;;;11.20;99.90;;;;;;5051819;28;20070;-81
2022/01/10 08:11:18;;;;;;;43.60;41.25;;;11.20;99.90;;;;;;5050077;28;20033;-80
2022/01/10 08:13:43;;;;;;;42.45;40.28;;;11.10;99.90;;;;;;5051549;28;20032;-80
2022/01/10 08:16:10;;;;;;;45.30;42.85;;;11.10;99.90;;;;;;5050056;28;20377;-80
2022/01/10 08:18:35;;;;;;;44.15;41.72;;;11.10;99.90;;;;;;5051208;28;20028;-79
2022/01/10 08:21:02;;;;;;;43.15;41.00;;;11.00;99.90;;;;;;5049648;28;20108;-78
2022/01/10 08:23:29;;;;;;;43.70;41.30;;;11.10;99.90;;;;;;5050772;28;20071;-82
2022/01/10 08:25:55;;;;;;;43.92;41.38;;;11.00;99.90;;;;;;5033438;28;20024;-78
2022/01/10 08:28:22;;;;;;;44.15;41.75;;;11.10;99.90;;;;;;5048928;28;20033;-80
2022/01/10 08:30:48;;;;;;;43.60;41.50;;;11.10;99.90;;;;;;5032293;28;20039;-81
2022/01/10 08:33:14;;;;;;;44.63;42.17;;;11.10;99.90;;;;;;5048862;28;20100;-77
2022/01/10 08:35:40;;;;;;;44.55;42.03;;;11.00;99.90;;;;;;5049597;28;20053;-81
2022/01/10 08:38:05;;;;;;;44.00;41.53;;;11.00;99.90;;;;;;5049154;28;20112;-80
2022/01/10 08:40:32;;;;;;;42.90;40.38;;;10.90;99.90;;;;;;5032730;28;20033;-79
2022/01/10 08:42:59;;;;;;;43.80;41.60;;;10.90;99.90;;;;;;5050541;28;20116;-81
2022/01/10 08:45:26;;;;;;;42.72;40.47;;;10.90;99.90;;;;;;5050852;28;20033;-79
2022/01/10 08:47:51;;;;;;;42.88;40.58;;;10.90;99.90;;;;;;5048788;28;20037;-79
2022/01/10 08:50:17;;;;;;;42.60;39.97;;;10.90;99.90;;;;;;5048737;28;20407;-79
2022/01/10 08:52:43;;;;;;;41.95;38.80;;;10.90;99.90;;;;;;5049811;28;20048;-79
2022/01/10 08:55:10;;;;;;;43.72;41.08;;;10.90;99.90;;;;;;5049710;28;20022;-80
2022/01/10 08:57:36;;;;;;;42.15;39.67;;;11.00;99.90;;;;;;5032229;28;20035;-80
2022/01/10 09:00:06;;;;;;;;;;;11.10;99.90;;;;;;5049561;28;20029;-79
2022/01/10 09:02:31;;;;;;;40.55;38.05;;;11.10;99.90;;;;;;5049413;28;20328;-79
2022/01/10 09:04:57;;;;;;;43.42;40.40;;;11.20;99.90;;;;;;5049761;28;20108;-80
2022/01/10 09:07:23;;;;;;;42.38;39.60;;;11.30;99.90;;;;;;5049435;28;20040;-77
2022/01/10 09:09:48;;;;;;;43.13;40.30;;;11.30;99.90;;;;;;5048009;28;20033;-79
2022/01/10 09:12:14;;;;;;;41.97;39.58;;;11.40;99.90;;;;;;5048032;28;20060;-81
2022/01/10 09:14:40;;;;;;;42.05;39.55;;;11.40;99.90;;;;;;5031508;28;20334;-79
2022/01/10 09:17:06;;;;;;;42.92;40.35;;;11.50;99.90;;;;;;5048778;28;20498;-80
2022/01/10 09:19:32;;;;;;;42.40;40.15;;;11.50;99.90;;;;;;5047704;28;20025;-80
2022/01/10 09:21:58;;;;;;;42.95;40.28;;;11.50;99.90;;;;;;5048034;28;20037;-81
2022/01/10 09:24:23;;;;;;;41.50;39.17;;;11.60;99.90;;;;;;5047502;28;20033;-81
2022/01/10 09:26:49;;;;;;;41.33;39.00;;;11.70;99.90;;;;;;5047442;28;20395;-80
2022/01/10 09:29:15;;;;;;;42.55;40.13;;;11.70;99.90;;;;;;5049204;28;20044;-79
2022/01/10 09:31:41;;;;;;;40.20;37.92;;;11.70;99.90;;;;;;5047402;28;20545;-79
2022/01/10 09:34:07;;;;;;;38.45;36.33;;;11.70;99.90;;;;;;5049275;28;20083;-79
2022/01/10 09:36:34;;;;;;;38.40;35.67;;;11.70;99.90;;;;;;5048984;28;20104;-79
2022/01/10 09:39:02;;;;;;;35.83;33.70;;;11.70;99.90;;;;;;5050738;28;20029;-79
2022/01/10 09:41:28;;;;;;;36.33;34.38;;;11.70;99.90;;;;;;5049174;28;20562;-78
2022/01/10 09:44:01;;;;;;;36.10;33.85;;;11.70;99.90;;;;;;5032784;28;20119;-78
2022/01/10 09:46:27;;;;;;;33.38;31.48;;;11.80;99.90;;;;;;5049003;28;20055;-79
2022/01/10 09:48:54;;;;;;;32.22;30.02;;;11.80;99.90;;;;;;5049241;28;20467;-80
2022/01/10 09:51:23;;;;;;;31.67;29.88;;;11.80;99.90;;;;;;5050560;28;20041;-79
2022/01/10 09:53:49;;;;;;;30.98;29.10;;;11.90;99.90;;;;;;5032535;28;20030;-81
2022/01/10 09:56:16;;;;;;;;;;;12.00;99.90;;;;;;5049334;28;20134;-78
2022/01/10 09:58:41;;;;;;;29.65;27.63;;;12.00;99.90;;;;;;5047713;28;19948;-79
2022/01/10 10:01:07;;;;;;;27.92;26.20;;;12.10;99.90;;;;;;5030983;28;20057;-79
2022/01/10 10:03:33;;;;;;;29.90;27.73;;;12.10;99.90;;;;;;5030964;28;20029;-78
2022/01/10 10:05:59;;;;;;;29.70;27.60;;;12.20;99.90;;;;;;5047878;28;20029;-77
2022/01/10 10:08:26;;;;;;;;;;;12.20;99.90;;;;;;5047992;28;20484;-78
2022/01/10 10:10:53;;;;;;;29.48;27.73;;;12.30;99.90;;;;;;5047453;28;20266;-79
2022/01/10 10:13:19;;;;;;;28.42;27.02;;;12.30;99.90;;;;;;5030998;28;20120;-78
2022/01/10 10:15:46;;;;;;;;;;;12.30;99.90;;;;;;5049569;28;20404;-78
2022/01/10 10:18:13;;;;;;;28.85;26.92;;;12.40;99.90;;;;;;5049050;28;19912;-78
2022/01/10 10:20:43;;;;;;;27.77;26.15;;;12.50;99.90;;;;;;5049453;28;20407;-77
2022/01/10 10:23:14;;;;;;;29.20;27.08;;;12.50;99.90;;;;;;5049100;28;20118;-78
2022/01/10 10:25:51;;;;;;;30.70;27.50;;;12.60;99.90;;;;;;5049108;28;20363;-79
2022/01/10 10:28:17;;;;;;;25.35;23.42;;;12.70;99.90;;;;;;5049020;28;20021;-78
2022/01/10 10:30:43;;;;;;;25.05;23.38;;;12.80;99.90;;;;;;5047672;28;20029;-79
2022/01/10 10:33:19;;;;;;;24.67;23.33;;;12.90;99.90;;;;;;5048830;28;20037;-78
2022/01/10 10:35:54;;;;;;;24.90;23.50;;;13.00;99.90;;;;;;5050013;28;20022;-79
2022/01/10 10:38:20;;;;;;;24.52;23.00;;;13.00;99.90;;;;;;5049572;28;20131;-80
2022/01/10 10:40:45;;;;;;;24.02;22.77;;;13.00;99.90;;;;;;5029382;28;20100;-78
2022/01/10 10:43:12;;;;;;;22.55;20.95;;;13.00;99.90;;;;;;5031889;28;20106;-79
2022/01/10 10:45:38;;;;;;;23.50;21.55;;;13.00;99.90;;;;;;5041117;28;20047;-81
2022/01/10 10:48:07;;;;;;;22.63;21.23;;;13.00;99.90;;;;;;5017006;28;20064;-80
2022/01/10 10:50:45;;;;;;;23.92;22.67;;;13.00;99.90;;;;;;5048319;28;20036;-81
2022/01/10 10:53:13;;;;;;;23.58;22.00;;;13.00;99.90;;;;;;5049023;28;20032;-79
2022/01/10 10:55:43;;;;;;;25.98;24.27;;;13.00;99.90;;;;;;5039130;28;20029;-81
2022/01/10 10:58:11;;;;;;;22.92;21.55;;;13.00;99.90;;;;;;5039040;28;20159;-81
2022/01/10 11:00:46;;;;;;;23.60;22.17;;;13.00;99.90;;;;;;5033405;28;20041;-79
2022/01/10 11:03:13;;;;;;;26.05;24.35;;;13.00;99.90;;;;;;5029360;28;20044;-79
2022/01/10 11:05:40;;;;;;;22.25;20.95;;;13.00;99.90;;;;;;5033407;28;20033;-78
2022/01/10 11:08:10;;;;;;;22.60;21.05;;;13.00;99.90;;;;;;5046360;28;20111;-78
2022/01/10 11:10:38;;;;;;;21.23;19.70;;;13.10;99.90;;;;;;5039670;28;20039;-79
2022/01/10 11:13:04;;;;;;;21.05;19.88;;;13.20;99.90;;;;;;5032664;28;20040;-79
2022/01/10 11:15:32;;;;;;;21.65;19.98;;;13.20;99.90;;;;;;5036333;28;20120;-79
2022/01/10 11:18:02;;;;;;;19.48;18.10;;;13.30;99.90;;;;;;5032633;28;20037;-78
2022/01/10 11:20:38;;;;;;;20.27;18.67;;;13.30;99.90;;;;;;5032028;28;20033;-79
2022/01/10 11:23:04;;;;;;;20.92;19.63;;;13.40;99.90;;;;;;5040776;28;20116;-77
2022/01/10 11:25:33;;;;;;;21.00;19.80;;;13.50;99.90;;;;;;5028605;28;20108;-78
2022/01/10 11:28:05;;;;;;;23.02;21.65;;;13.60;99.90;;;;;;5043501;28;20029;-78
2022/01/10 11:30:35;;;;;;;21.00;19.70;;;13.60;99.90;;;;;;5029788;28;20094;-78
2022/01/10 11:33:07;;;;;;;20.15;19.08;;;13.60;99.90;;;;;;5049043;28;20053;-79
2022/01/10 11:35:45;;;;;;;19.88;18.27;;;13.70;99.90;;;;;;5036876;28;20427;-78
2022/01/10 11:38:16;;;;;;;18.30;16.35;;;13.80;99.90;;;;;;5037821;28;20021;-79
2022/01/10 11:40:43;;;;;;;18.80;17.55;;;14.00;99.90;;;;;;5042218;28;20522;-78
2022/01/10 11:43:25;;;;;;;18.40;17.08;;;14.10;99.90;;;;;;5035395;28;20033;-77
2022/01/10 11:46:05;;;;;;;18.30;17.30;;;14.10;99.90;;;;;;5025812;28;20036;-78
2022/01/10 11:48:51;;;;;;;16.33;15.23;;;14.10;99.90;;;;;;5034276;28;20029;-77
2022/01/10 11:51:24;;;;;;;16.83;15.88;;;14.10;99.90;;;;;;5038174;28;20025;-76
2022/01/10 11:53:53;;;;;;;16.35;15.43;;;14.00;99.90;;;;;;5035751;28;20030;-77
2022/01/10 11:56:39;;;;;;;17.27;16.05;;;14.00;99.90;;;;;;5040674;28;20406;-77
2022/01/10 11:59:20;;;;;;;18.13;16.70;;;14.00;99.90;;;;;;5031207;28;20048;-79
2022/01/10 12:01:53;;;;;;;13.75;12.95;;;13.90;99.90;;;;;;5045366;28;20055;-77
2022/01/10 12:04:23;;;;;;;13.43;12.32;;;14.00;99.90;;;;;;5034340;28;20031;-77
2022/01/10 12:06:51;;;;;;;11.13;10.18;;;14.00;99.90;;;;;;5032811;28;20032;-76
2022/01/10 12:09:17;;;;;;;13.13;11.93;;;14.10;99.90;;;;;;5029396;28;20083;-76
2022/01/10 12:11:45;;;;;;;11.85;10.77;;;14.20;99.90;;;;;;5037462;28;20562;-73
2022/01/10 12:14:11;;;;;;;12.20;11.23;;;14.30;99.90;;;;;;5039190;28;20028;-78
2022/01/10 12:16:38;;;;;;;13.02;11.90;;;14.30;99.90;;;;;;5041363;28;20022;-76
2022/01/10 12:19:05;;;;;;;11.65;10.93;;;14.30;99.90;;;;;;5040239;28;20084;-78
2022/01/10 12:21:32;;;;;;;12.50;11.55;;;14.30;99.90;;;;;;5044908;28;20116;-77
2022/01/10 12:23:58;;;;;;;14.38;13.35;;;14.30;99.90;;;;;;5045483;28;20013;-77
2022/01/10 12:26:25;;;;;;;14.18;13.25;;;14.30;99.90;;;;;;5039969;28;20084;-76
2022/01/10 12:28:53;;;;;;;13.27;12.48;;;14.30;99.90;;;;;;5039324;28;20085;-77
2022/01/10 12:31:21;;;;;;;14.73;13.20;;;14.20;99.90;;;;;;5038986;28;20029;-78
2022/01/10 12:33:48;;;;;;;15.13;14.13;;;14.20;99.90;;;;;;5038316;28;20075;-76
2022/01/10 12:36:14;;;;;;;15.25;14.13;;;14.20;99.90;;;;;;5041618;28;20020;-76